Time;durP1;ratioP1;P1;durP2;ratioP2;P2;SDS_P1;SDS_P2;PMS_P1;PMS_P2;Temp;Humidity;BMP_temperature;BMP_pressure;BME280_temperature;BME280_humidity;BME280_pressure;Samples;Min_cycle;Max_cycle;Signal;HPM_P1;HPM_P2
2022/04/11 00:01:44;;;;;;;;;;;;;;;-144.19;100.00;78526.47;5054097;28;19924;-87
2022/04/11 00:04:11;;;;;;;;;;;;;;;-144.19;100.00;78542.22;5071318;28;19959;-86
2022/04/11 00:06:37;;;;;;;;;;;;;;;-144.19;100.00;78538.28;5072089;28;19929;-87
2022/04/11 00:09:03;;;;;;;;;;;;;;;-144.19;100.00;78540.25;5054150;28;19925;-87
2022/04/11 00:11:30;;;;;;;;;;;;;;;-144.19;100.00;78536.31;5071689;28;19947;-85
2022/04/11 00:13:56;;;;;;;;;;;;;;;-144.19;100.00;78532.38;5071020;28;19934;-87
2022/04/11 00:16:23;;;;;;;;;;;;;;;-144.19;100.00;78518.56;5053386;28;19938;-86
2022/04/11 00:18:49;;;;;;;;;;;;;;;-144.19;100.00;78536.31;5053795;28;19951;-86
2022/04/11 00:21:15;;;;;;;;;;;;;;;-144.19;100.00;78546.16;5053032;28;19947;-87
2022/04/11 00:23:42;;;;;;;;;;;;;;;-144.19;100.00;78559.94;5070953;28;20294;-86
2022/04/11 00:26:08;;;;;;;;;;;;;;;-144.19;100.00;78557.97;5053930;28;19959;-85
2022/04/11 00:28:34;;;;;;;;;;;;;;;-144.19;100.00;78556.00;5053962;28;19928;-87
2022/04/11 00:31:01;;;;;;;;;;;;;;;-144.19;100.00;78550.09;5053620;28;19924;-87
2022/04/11 00:33:28;;;;;;;;;;;;;;;-144.19;100.00;78544.19;5071101;28;19924;-87
2022/04/11 00:35:54;;;;;;;;;;;;;;;-144.19;100.00;78548.13;5054069;28;19931;-90
2022/04/11 00:38:21;;;;;;;;;;;;;;;-144.19;100.00;78554.03;5072263;28;19924;-88
2022/04/11 00:40:47;;;;;;;;;;;;;;;-144.19;100.00;78563.88;5051445;28;20015;-85
2022/04/11 00:43:32;;;;;;;;;;;;;;;-144.19;100.00;78559.94;5053583;28;19925;-87
2022/04/11 00:45:59;;;;;;;;;;;;;;;-144.19;100.00;78556.00;5065068;22;20011;-84
2022/04/11 00:48:26;;;;;;;;;;;;;;;-144.19;100.00;78559.94;5053970;28;20383;-84
2022/04/11 00:50:54;;;;;;;;;;;;;;;-144.19;100.00;78563.88;5053345;28;20395;-83
2022/04/11 00:53:21;;;;;;;;;;;;;;;-144.19;100.00;78565.84;5054848;28;19925;-84
2022/04/11 00:55:48;;;;;;;;;;;;;;;-144.19;100.00;78571.75;5054038;28;19935;-84
2022/04/11 00:58:14;;;;;;;;;;;;;;;-144.19;100.00;78559.94;5053382;28;20003;-84
2022/04/11 01:00:41;;;;;;;;;;;;;;;-144.19;100.00;78575.69;5054578;28;19947;-84
2022/04/11 01:03:08;;;;;;;;;;;;;;;-144.19;100.00;78569.78;5053992;28;19935;-84
2022/04/11 01:05:34;;;;;;;;;;;;;;;-144.19;100.00;78559.94;5036541;28;19925;-83
2022/04/11 01:08:05;;;;;;;;;;;;;;;-144.19;100.00;78559.94;5054476;28;20302;-84
2022/04/11 01:10:32;;;;;;;;;;;;;;;-144.19;100.00;78556.00;5036229;28;19925;-83
2022/04/11 01:12:58;;;;;;;;;;;;;;;-144.19;100.00;78565.84;5053770;28;19924;-84
2022/04/11 01:15:25;;;;;;;;;;;;;;;-144.19;100.00;78575.69;5035718;28;19925;-84
2022/04/11 01:17:51;;;;;;;;;;;;;;;-144.19;100.00;78567.81;5036093;28;20271;-84
2022/04/11 01:20:18;;;;;;;;;;;;;;;-144.19;100.00;78573.72;5053827;28;19925;-83
2022/04/11 01:22:44;;;;;;;;;;;;;;;-144.19;100.00;78575.69;5053194;28;19929;-83
2022/04/11 01:25:10;;;;;;;;;;;;;;;-144.19;100.00;78575.69;5054466;28;20506;-84
2022/04/11 01:27:37;;;;;;;;;;;;;;;-144.19;100.00;78571.75;5054309;28;20282;-84
2022/04/11 01:30:07;;;;;;;;;;;;;;;-144.19;100.00;78583.56;5054049;28;19931;-84
2022/04/11 01:32:35;;;;;;;;;;;;;;;-144.19;100.00;78583.56;5035224;28;19925;-83
2022/04/11 01:35:01;;;;;;;;;;;;;;;-144.19;100.00;78565.84;5064667;28;20390;-84
2022/04/11 01:37:28;;;;;;;;;;;;;;;-144.19;100.00;78589.47;5074243;28;19931;-83
2022/04/11 01:39:54;;;;;;;;;;;;;;;-144.19;100.00;78577.66;5070736;28;19925;-83
2022/04/11 01:42:20;;;;;;;;;;;;;;;-144.19;100.00;78593.41;5073303;28;20406;-83
2022/04/11 01:44:47;;;;;;;;;;;;;;;-144.19;100.00;78579.63;5073313;28;19928;-83
2022/04/11 01:47:13;;;;;;;;;;;;;;;-144.19;100.00;78575.69;5073677;28;19947;-83
2022/04/11 01:49:39;;;;;;;;;;;;;;;-144.19;100.00;78583.56;5074181;28;19924;-84
2022/04/11 01:52:06;;;;;;;;;;;;;;;-144.19;100.00;78571.75;5072676;28;19931;-83
2022/04/11 01:54:32;;;;;;;;;;;;;;;-144.19;100.00;78563.88;5078564;28;19929;-83
2022/04/11 01:56:59;;;;;;;;;;;;;;;-144.19;100.00;78571.75;5081844;28;19952;-83
2022/04/11 01:59:26;;;;;;;;;;;;;;;-144.19;100.00;78581.59;5084869;28;19925;-83
2022/04/11 02:01:53;;;;;;;;;;;;;;;-144.19;100.00;78575.69;5067244;28;19935;-83
2022/04/11 02:04:19;;;;;;;;;;;;;;;-144.19;100.00;78567.81;5062350;28;19967;-83
2022/04/11 02:06:46;;;;;;;;;;;;;;;-144.19;100.00;78577.66;5077526;28;20445;-83
2022/04/11 02:09:12;;;;;;;;;;;;;;;-144.19;100.00;78583.56;5075746;28;19935;-83
2022/04/11 02:11:38;;;;;;;;;;;;;;;-144.19;100.00;78585.53;5075589;28;20386;-83
2022/04/11 02:14:05;;;;;;;;;;;;;;;-144.19;100.00;78591.44;5074530;28;19931;-83
2022/04/11 02:16:31;;;;;;;;;;;;;;;-144.19;100.00;78591.44;5075138;28;19931;-83
2022/04/11 02:18:57;;;;;;;;;;;;;;;-144.19;100.00;78587.50;5074674;28;19974;-82
2022/04/11 02:21:23;;;;;;;;;;;;;;;-144.19;100.00;78599.31;5074719;28;19924;-83
2022/04/11 02:23:50;;;;;;;;;;;;;;;-144.19;100.00;78591.44;5072817;28;19930;-83
2022/04/11 02:26:16;;;;;;;;;;;;;;;-144.19;100.00;78583.56;5074509;28;19931;-83
2022/04/11 02:28:42;;;;;;;;;;;;;;;-144.19;100.00;78577.66;5074830;28;19939;-83
2022/04/11 02:31:09;;;;;;;;;;;;;;;-144.19;100.00;78577.66;5074113;28;19924;-83
2022/04/11 02:33:35;;;;;;;;;;;;;;;-144.19;100.00;78585.53;5057613;28;19928;-83
2022/04/11 02:36:01;;;;;;;;;;;;;;;-144.19;100.00;78591.44;5057117;28;20326;-83
2022/04/11 02:38:27;;;;;;;;;;;;;;;-144.19;100.00;78591.44;5057002;28;19928;-83
2022/04/11 02:40:54;;;;;;;;;;;;;;;-144.19;100.00;78587.50;5054069;28;20418;-83
2022/04/11 02:43:20;;;;;;;;;;;;;;;-144.19;100.00;78603.25;5056811;28;19925;-83
2022/04/11 02:45:47;;;;;;;;;;;;;;;-144.19;100.00;78591.44;5056948;28;19925;-83
2022/04/11 02:48:14;;;;;;;;;;;;;;;-144.19;100.00;78585.53;5057184;28;19983;-83
2022/04/11 02:50:40;;;;;;;;;;;;;;;-144.19;100.00;78583.56;5057019;28;20024;-83
2022/04/11 02:53:06;;;;;;;;;;;;;;;-144.19;100.00;78587.50;5039012;28;20411;-83
2022/04/11 02:55:33;;;;;;;;;;;;;;;-144.19;100.00;78595.38;5057216;28;20402;-83
2022/04/11 02:57:59;;;;;;;;;;;;;;;-144.19;100.00;78585.53;5057339;28;19932;-83
2022/04/11 03:00:25;;;;;;;;;;;;;;;-144.19;100.00;78581.59;5056658;28;19925;-83
2022/04/11 03:02:52;;;;;;;;;;;;;;;-144.19;100.00;78573.72;5055666;28;20306;-83
2022/04/11 03:05:18;;;;;;;;;;;;;;;-144.19;100.00;78579.63;5038853;28;19925;-83
2022/04/11 03:07:44;;;;;;;;;;;;;;;-144.19;100.00;78575.69;5056683;28;19925;-83
2022/04/11 03:10:11;;;;;;;;;;;;;;;-144.19;100.00;78569.78;5056288;28;20024;-83
2022/04/11 03:12:37;;;;;;;;;;;;;;;-144.19;100.00;78565.84;5038281;28;19931;-83
2022/04/11 03:15:04;;;;;;;;;;;;;;;-144.19;100.00;78571.75;5055893;28;20016;-83
2022/04/11 03:17:30;;;;;;;;;;;;;;;-144.19;100.00;78583.56;5056206;28;19931;-83
2022/04/11 03:19:56;;;;;;;;;;;;;;;-144.19;100.00;78583.56;5037652;28;19925;-83
2022/04/11 03:22:23;;;;;;;;;;;;;;;-144.19;100.00;78583.56;5054826;28;20402;-83
2022/04/11 03:24:49;;;;;;;;;;;;;;;-144.19;100.00;78571.75;5056461;28;19925;-83
2022/04/11 03:27:15;;;;;;;;;;;;;;;-144.19;100.00;78579.63;5055341;28;19924;-85
2022/04/11 03:29:42;;;;;;;;;;;;;;;-144.19;100.00;78571.75;5055042;28;19931;-83
2022/04/11 03:32:08;;;;;;;;;;;;;;;-144.19;100.00;78579.63;5054097;28;19935;-83
2022/04/11 03:34:34;;;;;;;;;;;;;;;-144.19;100.00;78575.69;5061344;28;19924;-83
2022/04/11 03:37:01;;;;;;;;;;;;;;;-144.19;100.00;78589.47;5074448;28;19929;-83
2022/04/11 03:39:28;;;;;;;;;;;;;;;-144.19;100.00;78583.56;5074928;28;19924;-84
2022/04/11 03:41:54;;;;;;;;;;;;;;;-144.19;100.00;78601.28;5075769;28;19931;-84
2022/04/11 03:44:21;;;;;;;;;;;;;;;-144.19;100.00;78595.38;5078894;28;19928;-84
2022/04/11 03:46:47;;;;;;;;;;;;;;;-144.19;100.00;78589.47;5077858;28;19964;-83
2022/04/11 03:49:13;;;;;;;;;;;;;;;-144.19;100.00;78589.47;5077802;28;20212;-85
2022/04/11 03:51:40;;;;;;;;;;;;;;;-144.19;100.00;78583.56;5056612;28;19925;-83
2022/04/11 03:54:06;;;;;;;;;;;;;;;-144.19;100.00;78583.56;5048684;28;19947;-83
2022/04/11 03:56:32;;;;;;;;;;;;;;;-144.19;100.00;78587.50;5049493;28;19924;-83
2022/04/11 03:58:59;;;;;;;;;;;;;;;-144.19;100.00;78575.69;5041106;28;19929;-83
2022/04/11 04:01:25;;;;;;;;;;;;;;;-144.19;100.00;78583.56;5028473;28;19925;-83
2022/04/11 04:03:51;;;;;;;;;;;;;;;-144.19;100.00;78575.69;5046937;28;19932;-83
2022/04/11 04:06:18;;;;;;;;;;;;;;;-144.19;100.00;78579.63;5046260;28;20015;-83
2022/04/11 04:08:44;;;;;;;;;;;;;;;-144.19;100.00;78575.69;5045681;28;19932;-84
2022/04/11 04:11:11;;;;;;;;;;;;;;;-144.19;100.00;78571.75;5065208;28;19943;-83
2022/04/11 04:13:37;;;;;;;;;;;;;;;-144.19;100.00;78573.72;5059205;28;20298;-83
2022/04/11 04:16:04;;;;;;;;;;;;;;;-144.19;100.00;78577.66;5056208;28;20387;-83
2022/04/11 04:18:30;;;;;;;;;;;;;;;-144.19;100.00;78583.56;5056534;28;19932;-83
2022/04/11 04:20:56;;;;;;;;;;;;;;;-144.19;100.00;78583.56;5055170;28;20015;-83
2022/04/11 04:23:23;;;;;;;;;;;;;;;-144.19;100.00;78583.56;5055341;28;19947;-83
2022/04/11 04:25:49;;;;;;;;;;;;;;;-144.19;100.00;78583.56;5055285;28;19931;-83
2022/04/11 04:28:17;;;;;;;;;;;;;;;-144.19;100.00;78611.13;5055173;28;20284;-83
2022/04/11 04:30:48;;;;;;;;;;;;;;;-144.19;100.00;78607.19;5055031;28;19933;-83
2022/04/11 04:33:14;;;;;;;;;;;;;;;-144.19;100.00;78603.25;5069173;28;19924;-84
2022/04/11 04:35:40;;;;;;;;;;;;;;;-144.19;100.00;78609.16;5070066;28;19924;-83
2022/04/11 04:38:07;;;;;;;;;;;;;;;-144.19;100.00;78615.09;5072232;28;20502;-83
2022/04/11 04:40:33;;;;;;;;;;;;;;;-144.19;100.00;78607.19;5072020;28;20003;-83
2022/04/11 04:42:59;;;;;;;;;;;;;;;-144.19;100.00;78611.13;5073329;28;19925;-83
2022/04/11 04:45:26;;;;;;;;;;;;;;;-144.19;100.00;78611.13;5072766;28;19931;-83
2022/04/11 04:47:52;;;;;;;;;;;;;;;-144.19;100.00;78619.03;5071021;28;19935;-83
2022/04/11 04:50:18;;;;;;;;;;;;;;;-144.19;100.00;78619.03;5050550;28;19928;-83
2022/04/11 04:52:45;;;;;;;;;;;;;;;-144.19;100.00;78613.09;5034402;28;19925;-83
2022/04/11 04:55:11;;;;;;;;;;;;;;;-144.19;100.00;78607.19;5053006;28;19928;-83
2022/04/11 04:57:37;;;;;;;;;;;;;;;-144.19;100.00;78591.44;5056719;28;19933;-83
2022/04/11 05:00:04;;;;;;;;;;;;;;;-144.19;100.00;78595.38;5073748;28;19930;-83
2022/04/11 05:02:34;;;;;;;;;;;;;;;-144.19;100.00;78603.25;5072327;28;19925;-83
2022/04/11 05:05:08;;;;;;;;;;;;;;;-144.19;100.00;78583.56;5072608;28;20310;-83
2022/04/11 05:07:34;;;;;;;;;;;;;;;-144.19;100.00;78575.69;5054542;28;19932;-83
2022/04/11 05:10:08;;;;;;;;;;;;;;;-144.19;100.00;78571.75;5073569;28;19924;-83
2022/04/11 05:12:38;;;;;;;;;;;;;;;-144.19;100.00;78571.75;5072797;28;19924;-83
2022/04/11 05:15:05;;;;;;;;;;;;;;;-144.19;100.00;78561.91;5073751;28;19925;-83
2022/04/11 05:17:31;;;;;;;;;;;;;;;-144.19;100.00;78552.06;5071763;28;19925;-83
2022/04/11 05:19:58;;;;;;;;;;;;;;;-144.19;100.00;78534.34;5073553;28;19925;-83
2022/04/11 05:22:24;;;;;;;;;;;;;;;-144.19;100.00;78514.63;5071461;28;19959;-83
2022/04/11 05:24:50;;;;;;;;;;;;;;;-144.19;100.00;78508.72;5071296;28;19931;-83
2022/04/11 05:27:16;;;;;;;;;;;;;;;-144.19;100.00;78492.97;5073920;28;19924;-83
2022/04/11 05:29:43;;;;;;;;;;;;;;;-144.19;100.00;78473.28;5073683;28;19931;-82
2022/04/11 05:32:09;;;;;;;;;;;;;;;-144.19;100.00;78473.28;5070844;28;19928;-83
2022/04/11 05:34:35;;;;;;;;;;;;;;;-144.19;100.00;78469.34;5067042;28;19925;-82
2022/04/11 05:37:02;;;;;;;;;;;;;;;-144.19;100.00;78451.63;5057010;28;20443;-82
2022/04/11 05:39:30;;;;;;;;;;;;;;;-144.19;100.00;78441.78;5056606;28;19931;-82
2022/04/11 05:41:56;;;;;;;;;;;;;;;-144.19;100.00;78441.78;5055444;28;19972;-83
2022/04/11 05:44:22;;;;;;;;;;;;;;;-144.19;100.00;78429.97;5056547;28;19924;-83
2022/04/11 05:46:55;;;;;;;;;;;;;;;-144.19;100.00;78418.13;5038007;28;19925;-83
2022/04/11 05:49:22;;;;;;;;;;;;;;;-144.19;100.00;78398.44;5038361;28;19928;-83
2022/04/11 05:51:49;;;;;;;;;;;;;;;-144.19;100.00;78386.63;5038891;28;19925;-83
2022/04/11 05:54:16;;;;;;;;;;;;;;;-144.19;100.00;78364.97;5060603;28;20390;-83
2022/04/11 05:56:42;;;;;;;;;;;;;;;-144.19;100.00;78347.25;5062409;28;19935;-83
2022/04/11 05:59:09;;;;;;;;;;;;;;;-144.19;100.00;78335.44;5061411;28;19925;-82
2022/04/11 06:01:35;;;;;;;;;;;;;;;-144.19;100.00;78317.72;5060364;28;19929;-83
2022/04/11 06:04:02;;;;;;;;;;;;;;;-144.19;100.00;78307.88;5042734;28;19958;-83
2022/04/11 06:06:28;;;;;;;;;;;;;;;-144.19;100.00;78307.88;5060506;28;19988;-84
2022/04/11 06:08:54;;;;;;;;;;;;;;;-144.19;100.00;78288.16;5060549;28;19925;-83
2022/04/11 06:11:20;;;;;;;;;;;;;;;-144.19;100.00;78280.28;5059941;28;19931;-83
2022/04/11 06:13:47;;;;;;;;;;;;;;;-144.19;100.00;78274.38;5058886;28;19924;-83
2022/04/11 06:16:13;;;;;;;;;;;;;;;-144.19;100.00;78264.53;5058881;28;20028;-83
2022/04/11 06:18:40;;;;;;;;;;;;;;;-144.19;100.00;78256.66;5060382;28;19932;-83
2022/04/11 06:21:06;;;;;;;;;;;;;;;-144.19;100.00;78248.78;5061209;28;19924;-83
2022/04/11 06:23:32;;;;;;;;;;;;;;;-144.19;100.00;78236.97;5065841;28;19946;-85
2022/04/11 06:26:00;;;;;;;;;;;;;;;-144.19;100.00;78221.22;5044087;28;20015;-83
2022/04/11 06:28:27;;;;;;;;;;;;;;;-144.19;100.00;78217.28;5066409;28;19940;-83
2022/04/11 06:30:54;;;;;;;;;;;;;;;-144.19;100.00;78213.34;5065458;28;20004;-83
2022/04/11 06:33:21;;;;;;;;;;;;;;;-144.19;100.00;78203.50;5068154;28;20294;-83
2022/04/11 06:35:47;;;;;;;;;;;;;;;-144.19;100.00;78189.72;5068319;28;19939;-83
2022/04/11 06:38:13;;;;;;;;;;;;;;;-144.19;100.00;78170.00;5040084;28;19925;-83
2022/04/11 06:40:40;;;;;;;;;;;;;;;-144.19;100.00;78150.31;5054320;28;20019;-84
2022/04/11 06:43:06;;;;;;;;;;;;;;;-144.19;100.00;78134.56;5050380;28;19928;-83
2022/04/11 06:48:07;;;;;;;;;;;;;;;-144.19;100.00;78105.03;5042455;28;19947;-82
2022/04/11 06:50:33;;;;;;;;;;;;;;;-144.19;100.00;78091.25;5042821;28;20315;-80
2022/04/11 06:53:00;;;;;;;;;;;;;;;-144.19;100.00;78079.44;5024377;28;19925;-82
2022/04/11 06:55:28;;;;;;;;;;;;;;;-144.19;100.00;78055.81;5044208;28;20111;-83
2022/04/11 06:57:54;;;;;;;;;;;;;;;-144.19;100.00;78038.09;5039691;28;19925;-82
2022/04/11 07:00:21;;;;;;;;;;;;;;;-144.19;100.00;78022.31;5036154;28;19924;-82
2022/04/11 07:02:47;;;;;;;;;;;;;;;-144.19;100.00;78008.53;5041360;28;19925;-80
2022/04/11 07:05:14;;;;;;;;;;;;;;;-144.19;100.00;77984.91;5043149;28;20740;-81
2022/04/11 07:07:40;;;;;;;;;;;;;;;-144.19;100.00;77959.31;5024326;28;19925;-81
2022/04/11 07:10:07;;;;;;;;;;;;;;;-144.19;100.00;77937.66;5017518;28;19929;-82
2022/04/11 07:12:36;;;;;;;;;;;;;;;-144.19;100.00;77904.19;5026128;28;20411;-82
2022/04/11 07:15:03;;;;;;;;;;;;;;;-144.19;100.00;77902.22;5033432;28;19935;-84
2022/04/11 07:17:29;;;;;;;;;;;;;;;-144.19;100.00;77874.66;5034671;28;19932;-82
2022/04/11 07:19:55;;;;;;;;;;;;;;;-144.19;100.00;77843.13;5033926;28;20248;-82
2022/04/11 07:22:24;;;;;;;;;;;;;;;-144.19;100.00;77835.25;5030273;28;20035;-80
2022/04/11 07:24:50;;;;;;;;;;;;;;;-144.19;100.00;77827.38;5032925;28;19925;-80
2022/04/11 07:27:16;;;;;;;;;;;;;;;-144.19;100.00;77795.88;5032990;28;19929;-82
2022/04/11 07:29:43;;;;;;;;;;;;;;;-144.19;100.00;77786.03;5030555;28;20721;-81
2022/04/11 07:32:09;;;;;;;;;;;;;;;-144.19;100.00;77797.84;5032481;28;19932;-82
2022/04/11 07:34:35;;;;;;;;;;;;;;;-144.19;100.00;77768.31;5033022;28;20371;-82
2022/04/11 07:37:02;;;;;;;;;;;;;;;-144.19;100.00;77766.34;5033083;28;19929;-82
2022/04/11 07:39:29;;;;;;;;;;;;;;;-144.19;100.00;77723.03;5018618;28;20331;-80
2022/04/11 07:41:55;;;;;;;;;;;;;;;-144.19;100.00;77689.56;5014915;28;19935;-81
2022/04/11 07:44:21;;;;;;;;;;;;;;;-144.19;100.00;77650.19;5031658;28;19929;-81
2022/04/11 07:46:48;;;;;;;;;;;;;;;-144.19;100.00;77662.00;5035897;28;20015;-81
2022/04/11 07:49:14;;;;;;;;;;;;;;;-144.19;100.00;77669.88;5036890;28;20355;-80
2022/04/11 07:51:41;;;;;;;;;;;;;;;-144.19;100.00;77665.94;5025468;28;19925;-79
2022/04/11 07:54:07;;;;;;;;;;;;;;;-144.19;100.00;77667.91;5032157;28;19932;-82
2022/04/11 07:56:33;;;;;;;;;;;;;;;-144.19;100.00;77665.94;5014017;28;19936;-82
2022/04/11 07:58:59;;;;;;;;;;;;;;;-144.19;100.00;77652.16;5032358;28;19925;-82
2022/04/11 08:01:28;;;;;;;;;;;;;;;-144.19;100.00;77628.53;5013466;28;19925;-82
2022/04/11 08:03:54;;;;;;;;;;;;;;;-144.19;100.00;77632.47;5014308;28;19999;-81
2022/04/11 08:06:20;;;;;;;;;;;;;;;-144.19;100.00;77652.16;5015308;28;19932;-82
2022/04/11 08:08:47;;;;;;;;;;;;;;;-144.19;100.00;77640.34;5032988;28;20275;-81
2022/04/11 08:11:14;;;;;;;;;;;;;;;-144.19;100.00;77638.38;5014285;28;19925;-80
2022/04/11 08:13:46;;;;;;;;;;;;;;;-144.19;100.00;77618.69;5032500;28;19925;-81
2022/04/11 08:16:13;;;;;;;;;;;;;;;-144.19;100.00;77599.00;5032583;28;19926;-82
2022/04/11 08:18:39;;;;;;;;;;;;;;;-144.19;100.00;77595.06;5032224;28;20016;-81
2022/04/11 08:21:06;;;;;;;;;;;;;;;-144.19;100.00;77640.34;5016135;28;19925;-80
2022/04/11 08:23:32;;;;;;;;;;;;;;;-144.19;100.00;77602.94;5034825;28;20000;-80
2022/04/11 08:25:58;;;;;;;;;;;;;;;-144.19;99.22;77583.25;5017075;28;20036;-82
2022/04/11 08:28:25;;;;;;;;;;;;;;;-144.19;94.45;77585.22;5034548;28;20342;-81
2022/04/11 08:30:51;;;;;;;;;;;;;;;-144.19;96.21;77557.63;5018376;28;19933;-82
2022/04/11 08:33:18;;;;;;;;;;;;;;;-144.19;99.63;77555.69;5013492;28;19929;-79
2022/04/11 08:35:44;;;;;;;;;;;;;;;-144.19;99.05;77537.94;5031861;28;19929;-78
2022/04/11 08:38:10;;;;;;;;;;;;;;;-144.19;96.24;77516.28;5022494;28;19935;-81
2022/04/11 08:40:37;;;;;;;;;;;;;;;-144.19;100.00;77534.00;5033493;28;19925;-81
2022/04/11 08:43:03;;;;;;;;;;;;;;;-144.19;100.00;77508.41;5031318;28;19931;-84
2022/04/11 08:45:30;;;;;;;;;;;;;;;-144.19;100.00;77480.84;5033403;28;19925;-81
2022/04/11 08:47:56;;;;;;;;;;;;;;;-144.19;100.00;77500.53;5033397;28;19948;-79
2022/04/11 08:50:24;;;;;;;;;;;;;;;-144.19;99.97;77478.88;5037373;28;19939;-81
2022/04/11 08:52:51;;;;;;;;;;;;;;;-144.19;97.37;77461.16;5024404;28;20038;-79
2022/04/11 08:55:18;;;;;;;;;;;;;;;-144.19;92.34;77461.16;5037792;28;19933;-79
2022/04/11 08:57:44;;;;;;;;;;;;;;;-144.19;90.11;77413.91;5034039;28;19933;-81
2022/04/11 09:00:12;;;;;;;;;;;;;;;-144.19;98.47;77400.13;5036642;28;19925;-81
2022/04/11 09:02:39;;;;;;;;;;;;;;;-144.19;93.21;77409.97;5021014;28;20318;-79
2022/04/11 09:05:06;;;;;;;;;;;;;;;-144.19;100.00;77413.91;5013640;28;19925;-82
2022/04/11 09:07:50;;;;;;;;;;;;;;;-144.19;100.00;77386.34;5029853;28;20350;-80
2022/04/11 09:10:17;;;;;;;;;;;;;;;-144.19;99.75;77339.09;5014731;28;20031;-81
2022/04/11 09:12:47;;;;;;;;;;;;;;;-144.19;98.46;77315.47;5013691;28;20334;-79
2022/04/11 09:15:14;;;;;;;;;;;;;;;-144.19;89.79;77303.66;5033956;28;19929;-81
2022/04/11 09:17:41;;;;;;;;;;;;;;;-144.19;86.08;77374.53;5034352;28;19929;-80
2022/04/11 09:20:12;;;;;;;;;;;;;;;-144.19;84.09;77333.19;5033117;28;19935;-80
2022/04/11 09:22:41;;;;;;;;;;;;;;;-144.19;89.81;77299.72;5016409;28;20318;-80
2022/04/11 09:25:11;;;;;;;;;;;;;;;-144.19;90.65;77293.81;5017252;28;19937;-78
2022/04/11 09:27:38;;;;;;;;;;;;;;;-144.19;85.14;77295.78;5012676;28;19929;-81
2022/04/11 09:30:21;;;;;;;;;;;;;;;-144.19;93.11;77207.19;5040432;28;19925;-80
2022/04/11 09:32:52;;;;;;;;;;;;;;;-144.19;82.49;77224.91;5032703;28;19935;-80
2022/04/11 09:35:22;;;;;;;;;;;;;;;-144.19;80.25;77185.53;5031385;28;19925;-78
2022/04/11 09:38:04;;;;;;;;;;;;;;;-144.19;80.49;77169.78;5031975;28;20012;-83
2022/04/11 09:40:49;;;;;;;;;;;;;;;-144.19;78.31;77146.16;5016859;28;19940;-81
2022/04/11 09:43:17;;;;;;;;;;;;;;;-144.19;84.76;77089.06;5027198;28;20401;-79
2022/04/11 09:45:48;;;;;;;;;;;;;;;-144.19;84.97;77024.09;5016163;28;20131;-79
2022/04/11 09:48:19;;;;;;;;;;;;;;;-144.19;73.73;77071.34;5029776;28;19986;-79
2022/04/11 09:50:47;;;;;;;;;;;;;;;-144.19;73.44;77093.00;5032123;28;19929;-80
2022/04/11 09:53:18;;;;;;;;;;;;;;;-144.19;74.48;77071.34;5031536;28;19929;-81
2022/04/11 09:55:45;;;;;;;;;;;;;;;-144.19;79.73;77055.59;5035281;28;19952;-82
2022/04/11 09:58:12;;;;;;;;;;;;;;;-144.19;79.49;76994.56;5035104;28;19925;-81
2022/04/11 10:00:39;;;;;;;;;;;;;;;-144.19;78.51;77031.97;5030700;28;20394;-79
2022/04/11 10:03:06;;;;;;;;;;;;;;;-144.19;80.66;76998.50;5029957;28;19945;-78
2022/04/11 10:05:36;;;;;;;;;;;;;;;-144.19;76.47;76976.84;5032431;28;19925;-81
2022/04/11 10:08:04;;;;;;;;;;;;;;;-144.19;81.65;76978.81;5029543;28;19925;-82
2022/04/11 10:10:31;;;;;;;;;;;;;;;-144.19;76.69;77004.41;5029723;28;19929;-79
2022/04/11 10:12:57;;;;;;;;;;;;;;;-144.19;74.68;76906.00;5030966;28;20032;-82
2022/04/11 10:15:24;;;;;;;;;;;;;;;-144.19;72.09;76925.69;5033948;28;19980;-81
2022/04/11 10:17:56;;;;;;;;;;;;;;;-144.19;74.35;76921.75;5005064;28;20171;-81
2022/04/11 10:20:24;;;;;;;;;;;;;;;-144.19;70.12;76870.56;5032171;28;20374;-80
2022/04/11 10:22:54;;;;;;;;;;;;;;;-144.19;72.85;76868.59;5021639;28;20110;-81
2022/04/11 10:25:20;;;;;;;;;;;;;;;-144.19;68.14;76795.75;5015535;28;19929;-81
2022/04/11 10:27:47;;;;;;;;;;;;;;;-144.19;72.20;76715.03;5016134;28;19936;-79
2022/04/11 10:30:27;;;;;;;;;;;;;;;-144.19;70.70;76685.53;5032705;28;19944;-80
2022/04/11 10:32:54;;;;;;;;;;;;;;;-144.19;69.69;76610.72;5037565;28;19925;-81
2022/04/11 10:35:32;;;;;;;;;;;;;;;-144.19;65.49;76648.13;5040360;28;20479;-80
2022/04/11 10:37:59;;;;;;;;;;;;;;;-144.19;66.81;76563.47;5023477;28;19931;-81
2022/04/11 10:40:26;;;;;;;;;;;;;;;-144.19;64.73;76539.84;5041904;28;19928;-80
2022/04/11 10:43:12;;;;;;;;;;;;;;;-144.19;60.10;76579.22;5015507;28;19933;-80
2022/04/11 10:45:54;;;;;;;;;;;;;;;-144.19;64.38;76575.28;5034081;28;19925;-84
2022/04/11 10:48:24;;;;;;;;;;;;;;;-144.19;56.77;76461.13;5015998;28;19933;-81
2022/04/11 10:50:52;;;;;;;;;;;;;;;-144.19;50.87;76553.63;5033200;28;19931;-84
2022/04/11 10:53:24;;;;;;;;;;;;;;;-144.19;58.62;76472.94;5034326;28;19925;-81
2022/04/11 10:56:06;;;;;;;;;;;;;;;-144.19;56.89;76398.13;5031133;28;20380;-81
2022/04/11 10:58:47;;;;;;;;;;;;;;;-144.19;47.97;76358.75;5013690;28;20011;-81
2022/04/11 11:01:15;;;;;;;;;;;;;;;-144.19;43.68;76465.06;5032525;28;19929;-81
2022/04/11 11:03:57;;;;;;;;;;;;;;;-144.19;49.82;76453.25;5032145;28;20004;-79
2022/04/11 11:06:24;;;;;;;;;;;;;;;-144.19;51.16;76610.72;5034212;28;19929;-81
2022/04/11 11:08:50;;;;;;;;;;;;;;;-144.19;58.52;76396.16;5031938;28;19925;-81
2022/04/11 11:11:27;;;;;;;;;;;;;;;-144.19;56.37;76274.13;5033733;28;19925;-82
2022/04/11 11:13:54;;;;;;;;;;;;;;;-144.19;53.90;76272.16;5014635;28;19925;-82
2022/04/11 11:16:27;;;;;;;;;;;;;;;-144.19;48.62;76364.66;5030964;28;19936;-80
2022/04/11 11:19:17;;;;;;;;;;;;;;;-144.19;47.55;76510.31;5019254;28;19929;-81
2022/04/11 11:21:48;;;;;;;;;;;;;;;-144.19;51.04;76453.25;5033655;28;19929;-80
2022/04/11 11:24:15;;;;;;;;;;;;;;;-144.19;55.38;76384.34;4995998;28;19978;-83
2022/04/11 11:26:45;;;;;;;;;;;;;;;-144.19;51.09;76720.94;5013874;28;19971;-81
2022/04/11 11:29:19;;;;;;;;;;;;;;;-144.19;53.50;76472.94;5014505;28;19932;-80
2022/04/11 11:31:47;;;;;;;;;;;;;;;-144.19;48.13;76374.50;5013650;28;19926;-83
2022/04/11 11:34:14;;;;;;;;;;;;;;;-144.19;49.22;76461.13;5015253;28;19973;-81
2022/04/11 11:36:41;;;;;;;;;;;;;;;-144.19;49.88;76496.53;5016486;28;20008;-80
2022/04/11 11:39:20;;;;;;;;;;;;;;;-144.19;53.52;76339.09;5034646;28;19952;-81
2022/04/11 11:41:48;;;;;;;;;;;;;;;-144.19;56.48;76183.59;5032801;28;19925;-82
2022/04/11 11:44:14;;;;;;;;;;;;;;;-144.19;49.08;76144.22;5033277;28;19972;-82
2022/04/11 11:46:53;;;;;;;;;;;;;;;-144.19;49.85;76181.63;5033092;28;19929;-80
2022/04/11 11:49:23;;;;;;;;;;;;;;;-144.19;53.53;76083.22;5034062;28;19941;-79
2022/04/11 11:51:49;;;;;;;;;;;;;;;-144.19;50.95;76114.69;5033099;28;19925;-81
2022/04/11 11:54:33;;;;;;;;;;;;;;;-144.19;49.80;76142.25;5014787;28;19932;-82
2022/04/11 11:57:00;;;;;;;;;;;;;;;-144.19;48.17;76219.00;5033147;28;20417;-81
2022/04/11 11:59:29;;;;;;;;;;;;;;;-144.19;47.92;76171.78;5033314;28;19933;-82
2022/04/11 12:04:40;;;;;;;;;;;;;;;-144.19;50.11;76122.56;5033521;28;19925;-83
2022/04/11 12:07:06;;;;;;;;;;;;;;;-144.19;43.41;76102.91;5015750;28;19932;-83
2022/04/11 12:09:34;;;;;;;;;;;;;;;-144.19;53.76;76065.50;5033692;28;19925;-83
2022/04/11 12:12:01;;;;;;;;;;;;;;;-144.19;45.06;76008.41;5032342;28;19925;-84
2022/04/11 12:14:27;;;;;;;;;;;;;;;-144.19;48.11;76020.22;5015940;28;19931;-81
2022/04/11 12:16:55;;;;;;;;;;;;;;;-144.19;47.17;76012.34;5032577;28;19929;-83
2022/04/11 12:19:31;;;;;;;;;;;;;;;-144.19;46.46;76035.97;5033430;28;19925;-82
2022/04/11 12:22:08;;;;;;;;;;;;;;;-144.19;44.45;76071.41;5031961;28;19929;-80
2022/04/11 12:24:34;;;;;;;;;;;;;;;-144.19;46.34;76110.75;5015120;28;19925;-82
2022/04/11 12:27:00;;;;;;;;;;;;;;;-144.19;46.42;76220.97;5033533;28;19929;-79
2022/04/11 12:29:27;;;;;;;;;;;;;;;-144.19;46.39;76252.47;5034862;28;19939;-79